createdAt,value
2023-02-18T08:41:54.989Z,51.70
2023-02-18T08:44:24.641Z,52.20
2023-02-18T08:46:54.836Z,52.10
2023-02-18T08:49:25.726Z,51.40
2023-02-18T08:51:56.087Z,50.70
2023-02-18T08:54:26.016Z,50.20
2023-02-18T08:56:59.265Z,49.60
2023-02-18T08:59:30.162Z,49.10
2023-02-18T09:01:59.787Z,48.70
2023-02-18T09:04:29.035Z,48.50
2023-02-18T09:06:58.802Z,48.20
2023-02-18T09:09:28.192Z,48.00
2023-02-18T09:11:59.048Z,47.80
2023-02-18T09:14:28.871Z,47.70
2023-02-18T09:16:58.822Z,48.30
2023-02-18T09:19:28.512Z,47.50
2023-02-18T09:22:00.677Z,47.40
2023-02-18T09:24:30.866Z,47.40
2023-02-18T09:27:01.832Z,47.30
2023-02-18T09:29:31.121Z,47.20
2023-02-18T09:32:02.261Z,47.00
2023-02-18T09:34:31.782Z,47.10
2023-02-18T09:37:01.146Z,47.20
2023-02-18T09:39:30.493Z,46.90
2023-02-18T09:42:04.738Z,47.00
2023-02-18T09:44:38.192Z,47.00
2023-02-18T09:47:14.573Z,47.10
2023-02-18T09:49:49.097Z,46.90
2023-02-18T09:52:23.998Z,46.90
2023-02-18T09:54:53.769Z,47.00
2023-02-18T09:57:28.572Z,46.90
2023-02-18T10:00:02.316Z,46.60
2023-02-18T10:02:43.254Z,46.70
2023-02-18T10:05:15.272Z,47.00
2023-02-18T10:07:46.046Z,47.10
2023-02-18T10:10:22.458Z,47.30
2023-02-18T10:12:55.333Z,48.30
2023-02-18T10:15:29.730Z,49.20
2023-02-18T10:18:00.404Z,49.20
2023-02-18T10:20:32.344Z,48.80
2023-02-18T10:23:06.338Z,49.10
2023-02-18T10:25:43.736Z,49.00
2023-02-18T10:28:15.033Z,49.50
2023-02-18T10:30:48.295Z,49.80
2023-02-18T10:33:32.506Z,50.00
2023-02-18T10:36:11.739Z,50.30
2023-02-18T10:38:50.701Z,50.00
2023-02-18T10:41:27.729Z,51.00
2023-02-18T10:44:06.722Z,51.40
2023-02-18T10:46:42.698Z,51.50
2023-02-18T10:49:33.064Z,51.70
2023-02-18T10:52:07.120Z,51.70
2023-02-18T10:54:52.772Z,51.70
2023-02-18T10:57:23.910Z,51.70
2023-02-18T11:00:10.768Z,51.70
2023-02-18T11:02:40.878Z,51.60
2023-02-18T11:05:21.428Z,51.60
2023-02-18T11:07:53.178Z,51.60
2023-02-18T11:10:26.847Z,51.60
2023-02-18T11:12:59.199Z,51.70
2023-02-18T11:15:30.909Z,51.60
2023-02-18T11:18:13.177Z,52.00
2023-02-18T11:20:43.067Z,51.60
2023-02-18T11:23:19.963Z,51.50
2023-02-18T11:25:58.779Z,51.50
2023-02-18T11:28:33.987Z,52.10
2023-02-18T11:31:06.203Z,51.60
2023-02-18T11:33:40.651Z,51.60
2023-02-18T11:36:19.788Z,51.50
2023-02-18T11:38:52.578Z,51.50
2023-02-18T11:41:24.391Z,51.50
2023-02-18T11:43:55.690Z,51.50
2023-02-18T11:46:28.296Z,51.60
2023-02-18T11:48:57.691Z,51.50
2023-02-18T11:51:28.557Z,51.50
2023-02-18T11:54:02.247Z,51.40
2023-02-18T11:56:34.123Z,51.40
2023-02-18T11:59:04.650Z,51.40
2023-02-18T12:01:44.995Z,51.40
2023-02-18T12:04:17.199Z,51.30
2023-02-18T12:06:54.459Z,51.40
2023-02-18T12:09:31.262Z,51.40
2023-02-18T12:12:02.928Z,51.30
2023-02-18T12:14:33.647Z,51.30
2023-02-18T12:17:50.065Z,51.30
2023-02-18T12:20:49.131Z,51.20
2023-02-18T12:23:31.763Z,51.30
2023-02-18T12:26:07.956Z,51.30
2023-02-18T12:28:53.188Z,51.20
2023-02-18T12:34:21.905Z,51.10
2023-02-18T12:37:04.464Z,51.10
2023-02-18T12:39:47.589Z,51.10
2023-02-18T12:42:37.597Z,51.20
2023-02-18T12:45:33.056Z,51.10
2023-02-18T12:48:20.317Z,51.10
2023-02-18T12:51:14.100Z,51.00
2023-02-18T12:54:07.023Z,51.20
2023-02-18T12:57:07.465Z,51.10
2023-02-18T13:00:02.258Z,51.00
2023-02-18T13:02:52.970Z,51.00
2023-02-18T13:05:32.445Z,51.00
2023-02-18T13:08:13.164Z,51.10
2023-02-18T13:11:05.089Z,50.80
2023-02-18T13:13:41.064Z,50.90
2023-02-18T13:16:14.427Z,50.90
2023-02-18T13:18:46.996Z,50.90
2023-02-18T13:21:18.378Z,50.80
2023-02-18T13:23:56.731Z,50.90
2023-02-18T13:26:27.762Z,50.90
2023-02-18T13:29:09.895Z,50.90
2023-02-18T13:31:48.796Z,50.90
2023-02-18T13:34:25.926Z,50.90
2023-02-18T13:37:07.217Z,50.80
2023-02-18T13:39:38.642Z,50.80
2023-02-18T13:42:35.476Z,50.80
2023-02-18T13:45:26.336Z,50.80
2023-02-18T13:47:56.810Z,50.80
2023-02-18T13:50:47.261Z,50.90
2023-02-18T13:53:27.155Z,50.80
2023-02-18T13:56:04.162Z,50.80
2023-02-18T13:58:42.581Z,50.70
2023-02-18T14:01:25.051Z,50.70
2023-02-18T14:04:02.402Z,50.70
2023-02-18T14:06:34.980Z,50.70
2023-02-18T14:09:22.515Z,50.70
2023-02-18T14:11:58.014Z,50.70
2023-02-18T14:14:40.968Z,50.70
2023-02-18T14:17:42.385Z,50.70
2023-02-18T14:20:51.565Z,50.60
2023-02-18T14:23:43.680Z,50.70
2023-02-18T14:26:24.928Z,50.60
2023-02-18T14:29:01.862Z,50.70
2023-02-18T14:31:54.292Z,50.70
2023-02-18T14:35:00.179Z,50.70
2023-02-18T14:37:52.046Z,50.70
2023-02-18T14:40:44.705Z,50.70
2023-02-18T14:43:25.583Z,50.70
2023-02-18T14:46:11.602Z,50.70
2023-02-18T14:48:56.966Z,50.70
2023-02-18T14:51:28.538Z,50.70
2023-02-18T14:53:57.969Z,50.70
2023-02-18T14:56:27.517Z,50.70
2023-02-18T14:59:01.249Z,50.70
2023-02-18T15:01:34.234Z,50.70
2023-02-18T15:04:05.456Z,50.70
2023-02-18T15:06:36.678Z,50.70
2023-02-18T15:09:16.939Z,50.70
2023-02-18T15:11:49.111Z,50.70
2023-02-18T15:14:21.174Z,50.70
2023-02-18T15:16:52.558Z,50.70
2023-02-18T15:19:25.202Z,50.70
2023-02-18T15:21:57.262Z,50.70
2023-02-18T15:24:31.729Z,50.70
2023-02-18T15:27:03.641Z,50.70
2023-02-18T15:29:36.786Z,50.70
2023-02-18T15:32:17.530Z,50.70
2023-02-18T15:34:50.764Z,50.70
2023-02-18T15:37:20.619Z,50.70
2023-02-18T15:39:50.200Z,50.70
2023-02-18T15:42:27.618Z,50.70
2023-02-18T15:44:59.512Z,50.70
2023-02-18T15:47:30.458Z,50.70
2023-02-18T15:50:02.896Z,50.70
2023-02-18T15:52:35.528Z,50.70
2023-02-18T15:55:12.825Z,50.70
2023-02-18T15:57:42.890Z,50.70
2023-02-18T16:00:17.598Z,50.70
2023-02-18T16:02:57.682Z,50.70
2023-02-18T16:05:29.311Z,50.70
2023-02-18T16:08:07.159Z,50.70
2023-02-18T16:10:45.757Z,50.70
2023-02-18T16:13:17.089Z,50.70
2023-02-18T16:15:48.686Z,50.70
2023-02-18T16:18:30.249Z,50.70
2023-02-18T16:21:07.360Z,50.70
2023-02-18T16:23:42.556Z,50.70
2023-02-18T16:26:24.112Z,50.70
2023-02-18T16:28:55.516Z,50.70
2023-02-18T16:31:24.926Z,50.70
2023-02-18T16:33:55.646Z,50.70
2023-02-18T16:36:26.652Z,50.70
2023-02-18T16:38:56.071Z,50.70
2023-02-18T16:41:25.304Z,50.80
2023-02-18T16:43:54.565Z,50.70
2023-02-18T16:46:25.581Z,50.80
2023-02-18T16:48:57.178Z,50.80
2023-02-18T16:51:31.265Z,50.80
2023-02-18T16:54:00.632Z,50.80
2023-02-18T16:56:35.486Z,50.90
2023-02-18T16:59:05.339Z,50.90
2023-02-18T17:01:38.447Z,51.10
2023-02-18T17:04:13.823Z,51.30
2023-02-18T17:06:43.556Z,51.00
2023-02-18T17:09:17.204Z,50.60
2023-02-18T17:11:48.031Z,50.20
2023-02-18T17:14:19.204Z,49.70
2023-02-18T17:16:52.113Z,49.10
2023-02-18T17:19:23.906Z,48.90
2023-02-18T17:21:53.515Z,48.80
2023-02-18T17:24:22.864Z,48.80
2023-02-18T17:26:52.146Z,48.60
2023-02-18T17:29:21.457Z,48.50
2023-02-18T17:31:55.353Z,48.40
2023-02-18T17:34:29.160Z,48.90
2023-02-18T17:36:58.543Z,48.20
2023-02-18T17:39:27.714Z,48.10
2023-02-18T17:41:57.058Z,48.10
2023-02-18T17:44:27.887Z,48.00
2023-02-18T17:46:57.171Z,48.00
2023-02-18T17:49:27.793Z,48.50
2023-02-18T17:51:58.144Z,48.60
2023-02-18T17:54:28.321Z,48.80
2023-02-18T17:56:57.776Z,48.80
2023-02-18T17:59:29.321Z,49.10
2023-02-18T18:01:59.086Z,49.10
2023-02-18T18:04:29.978Z,48.90
2023-02-18T18:06:59.525Z,48.90
2023-02-18T18:09:28.830Z,48.70
2023-02-18T18:11:58.186Z,48.60
2023-02-18T18:14:27.882Z,48.60
2023-02-18T18:16:57.221Z,48.60
2023-02-18T18:19:27.020Z,48.60
2023-02-18T18:21:57.656Z,48.50
2023-02-18T18:24:27.204Z,48.50
2023-02-18T18:26:56.639Z,48.50
2023-02-18T18:29:25.966Z,48.50
2023-02-18T18:31:55.503Z,48.40
2023-02-18T18:34:25.205Z,48.40
2023-02-18T18:36:54.585Z,48.40
2023-02-18T18:39:25.255Z,48.60
2023-02-18T18:41:54.869Z,48.50
2023-02-18T18:44:25.202Z,48.40
2023-02-18T18:46:54.806Z,48.60
2023-02-18T18:49:24.873Z,48.20
2023-02-18T18:51:56.616Z,48.10
2023-02-18T18:54:27.535Z,48.10
2023-02-18T18:56:56.979Z,48.20
2023-02-18T18:59:26.167Z,48.20
2023-02-18T19:01:56.256Z,48.30
2023-02-18T19:04:27.014Z,48.20
2023-02-18T19:06:56.264Z,48.30
2023-02-18T19:09:27.554Z,48.30
2023-02-18T19:11:56.957Z,48.30
2023-02-18T19:14:26.164Z,48.00
2023-02-18T19:16:56.462Z,48.20
2023-02-18T19:19:26.169Z,48.10
2023-02-18T19:21:56.212Z,48.00
2023-02-18T19:24:27.000Z,48.20
2023-02-18T19:26:56.397Z,48.00
2023-02-18T19:29:25.754Z,47.90
2023-02-18T19:31:55.258Z,47.80
2023-02-18T19:34:24.658Z,47.80
2023-02-18T19:36:54.291Z,47.80
2023-02-18T19:39:23.668Z,47.70
2023-02-18T19:41:54.618Z,47.70
2023-02-18T19:44:24.005Z,47.60
2023-02-18T19:46:55.806Z,47.60
2023-02-18T19:49:27.882Z,47.50
2023-02-18T19:52:04.090Z,47.50
2023-02-18T19:54:33.598Z,47.10
2023-02-18T19:57:05.938Z,47.30
2023-02-18T19:59:36.423Z,47.80
2023-02-18T20:02:05.742Z,48.00
2023-02-18T20:04:35.898Z,48.40
2023-02-18T20:07:05.348Z,48.70
2023-02-18T20:09:34.618Z,48.80
2023-02-18T20:12:06.732Z,48.90
2023-02-18T20:14:37.283Z,48.90
2023-02-18T20:17:07.060Z,48.90
2023-02-18T20:19:36.355Z,49.10
2023-02-18T20:22:07.572Z,49.20
2023-02-18T20:24:37.866Z,49.40
2023-02-18T20:27:12.014Z,49.50
2023-02-18T20:29:41.732Z,49.60
2023-02-18T20:32:11.150Z,50.30
2023-02-18T20:34:40.778Z,49.80
2023-02-18T20:37:10.581Z,49.80
2023-02-18T20:39:39.952Z,49.80
2023-02-18T20:42:16.319Z,49.80
2023-02-18T20:44:46.478Z,50.00
2023-02-18T20:47:16.508Z,50.00
2023-02-18T20:49:46.942Z,50.00
2023-02-18T20:52:16.480Z,50.10
2023-02-18T20:54:48.260Z,50.10
2023-02-18T20:57:21.258Z,50.20
2023-02-18T20:59:53.420Z,50.00
2023-02-18T21:02:23.470Z,50.10
2023-02-18T21:04:53.032Z,50.00
2023-02-18T21:07:22.901Z,50.00
2023-02-18T21:09:52.205Z,50.00
2023-02-18T21:12:22.842Z,50.20
2023-02-18T21:14:52.066Z,50.20
2023-02-18T21:17:22.287Z,50.30
2023-02-18T21:19:51.498Z,50.00
2023-02-18T21:22:20.714Z,50.10
2023-02-18T21:24:51.910Z,50.10
2023-02-18T21:27:22.530Z,50.20
2023-02-18T21:29:51.983Z,50.20
2023-02-18T21:32:21.250Z,50.20
2023-02-18T21:34:50.548Z,50.30
2023-02-18T21:37:19.752Z,50.30
2023-02-18T21:39:49.026Z,50.30
2023-02-18T21:42:18.231Z,50.20
2023-02-18T21:44:49.039Z,50.20
2023-02-18T21:47:18.471Z,50.40
2023-02-18T21:49:47.654Z,50.40
2023-02-18T21:52:16.877Z,50.60
2023-02-18T21:54:46.245Z,50.60
2023-02-18T21:57:16.969Z,50.50
2023-02-18T21:59:46.632Z,50.50
2023-02-18T22:02:20.287Z,50.60
2023-02-18T22:04:50.953Z,50.50
2023-02-18T22:07:22.958Z,50.60
2023-02-18T22:09:53.924Z,50.60
2023-02-18T22:12:23.940Z,50.60
2023-02-18T22:14:53.279Z,50.50
2023-02-18T22:17:23.866Z,50.50
2023-02-18T22:19:53.109Z,50.50
2023-02-18T22:22:22.450Z,50.60
2023-02-18T22:24:52.088Z,50.60
2023-02-18T22:27:21.346Z,50.70
2023-02-18T22:29:50.674Z,50.70
2023-02-18T22:32:19.944Z,50.60
2023-02-18T22:34:50.670Z,50.60
2023-02-18T22:37:19.845Z,50.70
2023-02-18T22:39:50.968Z,50.70
2023-02-18T22:42:20.364Z,50.70
2023-02-18T22:44:49.556Z,50.60
2023-02-18T22:47:18.765Z,50.60
2023-02-18T22:49:49.615Z,50.60
2023-02-18T22:52:18.879Z,50.60
2023-02-18T22:54:48.237Z,50.60
2023-02-18T22:57:17.419Z,50.60
2023-02-18T22:59:46.606Z,50.70
2023-02-18T23:02:15.809Z,50.60
2023-02-18T23:04:45.129Z,50.60
2023-02-18T23:07:15.893Z,50.60
2023-02-18T23:09:45.063Z,50.60
2023-02-18T23:12:14.338Z,50.60
2023-02-18T23:14:43.728Z,50.70
2023-02-18T23:17:17.936Z,50.70
2023-02-18T23:19:49.258Z,50.60
2023-02-18T23:22:21.975Z,50.60
2023-02-18T23:24:51.321Z,50.70
2023-02-18T23:27:21.500Z,50.60
2023-02-18T23:29:50.806Z,50.60
2023-02-18T23:32:20.383Z,50.70
2023-02-18T23:34:51.346Z,50.60
2023-02-18T23:37:44.132Z,50.60
2023-02-18T23:40:15.018Z,50.70
2023-02-18T23:42:44.425Z,50.70
2023-02-18T23:45:13.650Z,50.70
2023-02-18T23:47:42.808Z,50.70
2023-02-18T23:50:12.118Z,51.30
2023-02-18T23:52:42.754Z,50.60
2023-02-18T23:55:12.514Z,50.70
2023-02-18T23:57:41.708Z,50.70
